createdAt,value
2023-03-27T00:01:26.296Z,64.44
2023-03-27T00:03:55.919Z,64.54
2023-03-27T00:06:25.110Z,64.19
2023-03-27T00:08:53.325Z,63.90
2023-03-27T00:11:25.130Z,64.09
2023-03-27T00:13:54.981Z,64.12
2023-03-27T00:16:26.838Z,64.22
2023-03-27T00:18:55.526Z,63.89
2023-03-27T00:21:26.240Z,63.95
2023-03-27T00:23:57.584Z,63.15
2023-03-27T00:26:25.573Z,63.01
2023-03-27T00:28:53.605Z,63.40
2023-03-27T00:31:22.119Z,62.97
2023-03-27T00:33:50.660Z,63.27
2023-03-27T00:36:18.301Z,63.67
2023-03-27T00:38:45.936Z,64.04
2023-03-27T00:41:14.075Z,64.21
2023-03-27T00:43:43.902Z,64.11
2023-03-27T00:46:16.319Z,62.80
2023-03-27T00:48:48.115Z,62.33
2023-03-27T00:51:17.056Z,62.42
2023-03-27T00:53:47.423Z,63.40
2023-03-27T00:56:16.634Z,63.26
2023-03-27T00:58:49.077Z,63.14
2023-03-27T01:01:17.760Z,63.40
2023-03-27T01:03:47.314Z,63.63
2023-03-27T01:06:17.266Z,62.78
2023-03-27T01:08:46.223Z,62.17
2023-03-27T01:12:01.685Z,63.74
2023-03-27T01:14:58.041Z,64.34
2023-03-27T01:17:35.241Z,64.16
2023-03-27T01:20:32.590Z,65.95
2023-03-27T01:23:07.141Z,64.49
2023-03-27T01:26:06.105Z,64.71
2023-03-27T01:28:37.240Z,63.44
2023-03-27T01:31:25.024Z,64.82
2023-03-27T01:34:03.916Z,65.22
2023-03-27T01:36:59.078Z,63.69
2023-03-27T01:40:00.196Z,64.03
2023-03-27T01:42:47.099Z,64.98
2023-03-27T01:45:21.741Z,65.97
2023-03-27T01:48:00.357Z,66.53
2023-03-27T01:50:37.910Z,66.16
2023-03-27T01:53:16.120Z,65.59
2023-03-27T01:55:48.105Z,65.56
2023-03-27T01:58:20.265Z,65.47
2023-03-27T02:00:53.693Z,65.55
2023-03-27T02:03:27.109Z,65.38
2023-03-27T02:06:00.912Z,65.30
2023-03-27T02:08:36.405Z,64.98
2023-03-27T02:11:05.525Z,65.53
2023-03-27T02:13:46.679Z,65.39
2023-03-27T02:16:20.138Z,66.50
2023-03-27T02:18:56.851Z,65.93
2023-03-27T02:21:25.214Z,64.34
2023-03-27T02:23:55.065Z,63.08
2023-03-27T02:26:23.102Z,62.89
2023-03-27T02:29:08.409Z,64.71
2023-03-27T02:31:42.854Z,63.74
2023-03-27T02:34:25.006Z,63.78
2023-03-27T02:37:09.453Z,63.77
2023-03-27T02:40:14.487Z,63.72
2023-03-27T02:43:00.566Z,64.35
2023-03-27T02:45:58.896Z,65.19
2023-03-27T02:48:35.568Z,65.23
2023-03-27T02:51:07.950Z,65.87
2023-03-27T02:53:40.906Z,65.49
2023-03-27T02:56:11.214Z,64.64
2023-03-27T02:58:47.767Z,65.02
2023-03-27T03:01:18.384Z,65.81
2023-03-27T03:03:54.949Z,65.63
2023-03-27T03:06:30.174Z,65.04
2023-03-27T03:09:02.856Z,64.29
2023-03-27T03:11:31.028Z,63.75
2023-03-27T03:13:59.469Z,64.22
2023-03-27T03:16:29.416Z,64.08
2023-03-27T03:18:57.648Z,64.63
2023-03-27T03:21:25.587Z,65.34
2023-03-27T03:23:57.777Z,65.32
2023-03-27T03:26:28.226Z,64.96
2023-03-27T03:28:59.787Z,64.04
2023-03-27T03:31:45.962Z,64.32
2023-03-27T03:34:16.672Z,64.90
2023-03-27T03:36:50.080Z,64.44
2023-03-27T03:39:19.099Z,64.85
2023-03-27T03:41:48.295Z,65.81
2023-03-27T03:44:16.318Z,65.27
2023-03-27T03:46:44.119Z,64.91
2023-03-27T03:49:13.655Z,64.57
2023-03-27T03:51:41.552Z,65.65
2023-03-27T03:54:10.459Z,64.92
2023-03-27T03:56:45.488Z,64.44
2023-03-27T03:59:14.197Z,64.54
2023-03-27T04:01:54.221Z,65.13
2023-03-27T04:04:22.199Z,65.20
2023-03-27T04:06:53.138Z,65.06
2023-03-27T04:09:26.218Z,64.83
2023-03-27T04:11:55.017Z,64.92
2023-03-27T04:14:23.989Z,64.58
2023-03-27T04:16:54.545Z,64.78
2023-03-27T04:19:24.677Z,64.30
2023-03-27T04:21:56.587Z,63.53
2023-03-27T04:24:26.906Z,64.37
2023-03-27T04:26:58.412Z,63.78
2023-03-27T04:29:31.927Z,64.68
2023-03-27T04:32:10.724Z,64.25
2023-03-27T04:34:50.749Z,64.31
2023-03-27T04:37:23.275Z,63.95
2023-03-27T04:39:58.988Z,64.25
2023-03-27T04:42:27.152Z,64.42
2023-03-27T04:44:55.437Z,63.84
2023-03-27T04:47:24.070Z,63.28
2023-03-27T04:49:54.968Z,63.83
2023-03-27T04:52:25.622Z,64.06
2023-03-27T04:54:55.938Z,63.86
2023-03-27T04:57:28.080Z,63.57
2023-03-27T05:00:01.180Z,64.26
2023-03-27T05:02:39.598Z,65.20
2023-03-27T05:05:10.708Z,64.87
2023-03-27T05:07:39.540Z,63.96
2023-03-27T05:10:11.631Z,63.74
2023-03-27T05:12:45.741Z,63.66
2023-03-27T05:15:17.375Z,64.23
2023-03-27T05:17:54.691Z,64.45
2023-03-27T05:20:25.253Z,65.02
2023-03-27T05:22:56.882Z,65.61
2023-03-27T05:25:26.592Z,66.14
2023-03-27T05:27:55.070Z,65.78
2023-03-27T05:30:27.142Z,65.61
2023-03-27T05:33:15.951Z,63.84
2023-03-27T05:35:47.124Z,64.37
2023-03-27T05:38:16.205Z,64.47
2023-03-27T05:40:44.531Z,64.12
2023-03-27T05:43:23.318Z,64.21
2023-03-27T05:45:54.167Z,64.01
2023-03-27T05:48:22.621Z,63.97
2023-03-27T05:50:51.253Z,64.12
2023-03-27T05:53:19.854Z,64.36
2023-03-27T05:56:03.136Z,64.45
2023-03-27T05:58:36.610Z,64.52
2023-03-27T06:01:11.327Z,64.95
2023-03-27T06:03:43.083Z,65.06
2023-03-27T06:06:15.729Z,65.28
2023-03-27T06:08:48.116Z,65.84
2023-03-27T06:11:24.962Z,65.39
2023-03-27T06:13:59.231Z,65.71
2023-03-27T06:16:32.700Z,65.68
2023-03-27T06:19:03.101Z,65.14
2023-03-27T06:21:32.162Z,65.52
2023-03-27T06:24:05.898Z,66.32
2023-03-27T06:26:43.085Z,65.65
2023-03-27T06:29:16.980Z,65.18
2023-03-27T06:31:49.034Z,65.03
2023-03-27T06:34:24.956Z,64.12
2023-03-27T06:36:56.131Z,64.98
2023-03-27T06:39:27.864Z,65.38
2023-03-27T06:42:06.959Z,65.17
2023-03-27T06:44:36.670Z,64.70
2023-03-27T06:47:09.028Z,65.52
2023-03-27T06:49:39.976Z,64.98
2023-03-27T06:52:10.257Z,65.67
2023-03-27T06:54:41.895Z,66.49
2023-03-27T06:57:13.825Z,66.43
2023-03-27T06:59:45.142Z,67.20
2023-03-27T07:02:13.709Z,67.47
2023-03-27T07:04:57.652Z,67.67
2023-03-27T07:07:35.218Z,67.42
2023-03-27T07:10:07.480Z,67.68
2023-03-27T07:12:36.976Z,66.71
2023-03-27T07:15:10.595Z,66.03
2023-03-27T07:17:48.611Z,65.43
2023-03-27T07:20:21.961Z,64.41
2023-03-27T07:23:02.957Z,65.74
2023-03-27T07:25:37.740Z,65.43
2023-03-27T07:28:15.922Z,65.64
2023-03-27T07:30:45.434Z,65.65
2023-03-27T07:33:17.079Z,66.62
2023-03-27T07:35:55.938Z,66.64
2023-03-27T07:38:31.944Z,66.20
2023-03-27T07:41:11.504Z,65.19
2023-03-27T07:43:42.380Z,65.74
2023-03-27T07:46:11.227Z,65.86
2023-03-27T07:48:43.603Z,65.60
2023-03-27T07:51:15.592Z,66.73
2023-03-27T07:53:47.942Z,66.30
2023-03-27T07:56:15.930Z,65.08
2023-03-27T07:58:45.520Z,64.98
2023-03-27T08:01:18.889Z,64.18
2023-03-27T08:03:49.196Z,63.84
2023-03-27T08:06:20.974Z,63.68
2023-03-27T08:08:53.067Z,63.67
2023-03-27T08:11:30.370Z,63.70
2023-03-27T08:14:03.043Z,65.31
2023-03-27T08:16:31.300Z,65.19
2023-03-27T08:19:06.870Z,64.79
2023-03-27T08:21:44.131Z,66.25
2023-03-27T08:24:13.172Z,66.59
2023-03-27T08:26:44.882Z,65.34
2023-03-27T08:29:13.273Z,65.59
2023-03-27T08:31:43.985Z,64.96
2023-03-27T08:34:12.945Z,65.56
2023-03-27T08:36:46.982Z,67.04
2023-03-27T08:39:15.603Z,65.67
2023-03-27T08:41:50.563Z,66.11
2023-03-27T08:44:24.012Z,66.31
2023-03-27T08:47:02.970Z,66.92
2023-03-27T08:49:39.674Z,66.67
2023-03-27T08:52:17.722Z,67.06
2023-03-27T08:54:58.340Z,66.63
2023-03-27T08:57:33.040Z,66.66
2023-03-27T09:00:11.013Z,66.61
2023-03-27T09:02:55.122Z,66.87
2023-03-27T09:05:42.958Z,66.04
2023-03-27T09:08:58.217Z,66.00
2023-03-27T09:11:44.794Z,67.77
2023-03-27T09:14:35.155Z,67.15
2023-03-27T09:17:13.495Z,67.45
2023-03-27T09:20:08.139Z,67.32
2023-03-27T09:22:50.964Z,66.42
2023-03-27T09:25:30.905Z,67.52
2023-03-27T09:28:17.178Z,68.24
2023-03-27T09:30:54.239Z,66.90
2023-03-27T09:33:27.252Z,66.23
2023-03-27T09:35:59.469Z,68.74
2023-03-27T09:38:36.054Z,68.01
2023-03-27T09:41:18.358Z,68.15
2023-03-27T09:44:04.796Z,68.57
2023-03-27T09:46:37.042Z,69.87
2023-03-27T09:49:14.957Z,71.00
2023-03-27T09:51:51.248Z,70.53
2023-03-27T09:54:22.250Z,71.11
2023-03-27T09:57:02.674Z,68.50
2023-03-27T09:59:40.181Z,68.29
2023-03-27T10:02:22.080Z,68.55
2023-03-27T10:05:04.482Z,68.41
2023-03-27T10:07:36.150Z,68.47
2023-03-27T10:10:22.937Z,68.09
2023-03-27T10:12:56.071Z,68.52
2023-03-27T10:15:46.066Z,67.97
2023-03-27T10:18:30.979Z,67.79
2023-03-27T10:21:13.897Z,67.38
2023-03-27T10:23:50.298Z,67.38
2023-03-27T10:26:22.132Z,66.42
2023-03-27T10:28:52.940Z,66.17
2023-03-27T10:31:35.258Z,66.33
2023-03-27T10:34:11.600Z,66.63
2023-03-27T10:36:47.961Z,66.58
2023-03-27T10:39:23.089Z,67.44
2023-03-27T10:41:57.080Z,67.53
2023-03-27T10:44:31.647Z,66.62
2023-03-27T10:47:02.010Z,66.81
2023-03-27T10:49:43.268Z,67.64
2023-03-27T10:52:28.275Z,68.37
2023-03-27T10:54:57.155Z,69.03
2023-03-27T10:57:35.231Z,67.64
2023-03-27T11:00:13.987Z,67.66
2023-03-27T11:03:01.176Z,67.02
2023-03-27T11:05:38.928Z,67.35
2023-03-27T11:08:25.939Z,66.12
2023-03-27T11:10:59.256Z,65.54
2023-03-27T11:13:34.293Z,69.76
2023-03-27T11:16:21.608Z,67.93
2023-03-27T11:19:12.272Z,69.11
2023-03-27T11:22:00.906Z,71.11
2023-03-27T11:24:43.422Z,69.09
2023-03-27T11:27:39.341Z,70.28
2023-03-27T11:33:53.048Z,70.15
2023-03-27T11:36:58.905Z,71.95
2023-03-27T11:40:07.253Z,70.99
2023-03-27T11:43:07.382Z,68.68
2023-03-27T11:46:04.034Z,69.66
2023-03-27T11:49:16.986Z,70.22
2023-03-27T11:55:09.969Z,70.18
2023-03-27T11:58:05.167Z,72.23
2023-03-27T12:01:10.100Z,70.56
2023-03-27T12:07:36.193Z,70.50
2023-03-27T12:10:39.013Z,67.93
2023-03-27T12:17:11.060Z,66.71
2023-03-27T12:20:17.507Z,70.15
2023-03-27T12:23:33.958Z,66.96
2023-03-27T12:26:16.110Z,70.70
2023-03-27T12:29:44.238Z,67.09
2023-03-27T12:32:31.059Z,66.66
2023-03-27T12:35:30.131Z,65.67
2023-03-27T12:38:37.055Z,66.24
2023-03-27T12:41:25.361Z,65.00
2023-03-27T12:44:22.126Z,64.49
2023-03-27T12:47:26.372Z,64.92
2023-03-27T12:50:21.466Z,66.14
2023-03-27T12:53:23.005Z,66.45
2023-03-27T12:56:30.099Z,65.56
2023-03-27T12:59:34.784Z,64.42
2023-03-27T13:02:31.158Z,61.29
2023-03-27T13:05:33.564Z,60.88
2023-03-27T13:08:42.009Z,60.14
2023-03-27T13:11:33.152Z,60.85
2023-03-27T13:14:18.270Z,60.25
2023-03-27T13:17:11.221Z,62.79
2023-03-27T13:19:43.363Z,58.48
2023-03-27T13:22:48.006Z,59.27
2023-03-27T13:25:44.208Z,57.86
2023-03-27T13:28:29.324Z,60.27
2023-03-27T13:31:02.983Z,58.01
2023-03-27T13:33:44.333Z,58.94
2023-03-27T13:39:18.560Z,61.29
2023-03-27T13:42:03.367Z,60.70
2023-03-27T13:44:53.946Z,60.67
2023-03-27T13:48:16.002Z,62.60
2023-03-27T13:53:55.265Z,61.24
2023-03-27T13:57:19.041Z,60.99
2023-03-27T14:00:50.021Z,61.39
2023-03-27T14:07:49.861Z,60.31
2023-03-27T14:13:59.916Z,61.51
2023-03-27T14:16:51.031Z,59.88
2023-03-27T14:19:56.629Z,60.59
2023-03-27T14:25:56.344Z,58.94
2023-03-27T14:28:57.466Z,57.93
2023-03-27T14:31:39.005Z,58.56
2023-03-27T14:34:47.411Z,58.37
2023-03-27T14:37:32.245Z,58.65
2023-03-27T14:40:23.233Z,58.30
2023-03-27T14:43:08.260Z,59.47
2023-03-27T14:46:09.359Z,58.94
2023-03-27T14:49:19.679Z,59.37
2023-03-27T14:52:16.922Z,59.27
2023-03-27T14:55:07.962Z,58.93
2023-03-27T14:58:11.069Z,58.95
2023-03-27T15:01:00.955Z,59.98
2023-03-27T15:06:53.891Z,60.12
2023-03-27T15:09:40.120Z,61.60
2023-03-27T15:12:23.828Z,60.26
2023-03-27T15:15:47.156Z,60.98
2023-03-27T15:18:56.375Z,62.08
2023-03-27T15:24:47.095Z,62.06
2023-03-27T15:27:41.767Z,60.16
2023-03-27T15:30:37.870Z,59.45
2023-03-27T15:34:08.457Z,60.18
2023-03-27T15:37:00.943Z,57.77
2023-03-27T15:40:09.477Z,56.95
2023-03-27T15:43:03.539Z,56.95
2023-03-27T15:45:51.996Z,56.84
2023-03-27T15:48:38.493Z,56.20
2023-03-27T15:54:23.160Z,55.58
2023-03-27T15:57:09.091Z,55.42
2023-03-27T15:59:52.134Z,56.60
2023-03-27T16:02:26.162Z,55.66
2023-03-27T16:05:00.924Z,55.83
2023-03-27T16:07:45.859Z,54.79
2023-03-27T16:10:32.348Z,56.48
2023-03-27T16:13:26.607Z,56.01
2023-03-27T16:16:01.984Z,56.49
2023-03-27T16:18:43.950Z,57.45
2023-03-27T16:21:14.038Z,56.26
2023-03-27T16:23:45.751Z,56.21
2023-03-27T16:26:17.919Z,56.00
2023-03-27T16:31:32.666Z,56.41
2023-03-27T16:34:22.220Z,57.91
2023-03-27T16:37:02.236Z,56.55
2023-03-27T16:39:32.952Z,56.33
2023-03-27T16:42:16.247Z,57.55
2023-03-27T16:44:47.713Z,57.29
2023-03-27T16:47:18.102Z,58.69
2023-03-27T16:52:30.900Z,58.03
2023-03-27T16:55:02.789Z,56.31
2023-03-27T16:57:45.953Z,56.32
2023-03-27T17:00:22.992Z,55.43
2023-03-27T17:02:59.235Z,55.09
2023-03-27T17:06:06.146Z,53.41
2023-03-27T17:08:36.893Z,53.38
2023-03-27T17:11:12.160Z,51.19
2023-03-27T17:13:45.130Z,52.58
2023-03-27T17:16:25.970Z,52.00
2023-03-27T17:18:57.577Z,50.38
2023-03-27T17:21:30.904Z,51.03
2023-03-27T17:26:48.855Z,50.01
2023-03-27T17:32:03.722Z,48.93
2023-03-27T17:34:32.691Z,49.53
2023-03-27T17:37:13.837Z,47.87
2023-03-27T17:39:50.964Z,48.22
2023-03-27T17:42:25.792Z,47.22
2023-03-27T17:45:00.924Z,47.56
2023-03-27T17:47:33.153Z,48.65
2023-03-27T17:50:11.879Z,48.72
2023-03-27T17:52:47.949Z,48.21
2023-03-27T17:55:33.920Z,48.91
2023-03-27T17:58:12.591Z,48.26
2023-03-27T18:01:09.820Z,48.09
2023-03-27T18:06:14.777Z,47.46
2023-03-27T18:08:45.284Z,46.41
2023-03-27T18:11:22.977Z,46.89
2023-03-27T18:13:59.332Z,47.23
2023-03-27T18:16:35.838Z,47.73
2023-03-27T18:19:18.851Z,47.67
2023-03-27T18:21:51.881Z,47.98
2023-03-27T18:24:21.197Z,47.48
2023-03-27T18:26:56.117Z,46.74
2023-03-27T18:29:27.109Z,48.63
2023-03-27T18:34:45.297Z,47.50
2023-03-27T18:37:25.776Z,46.80
2023-03-27T18:40:13.057Z,47.49
2023-03-27T18:42:50.988Z,47.78
2023-03-27T18:45:27.229Z,46.65
2023-03-27T18:48:18.699Z,46.18
2023-03-27T18:50:58.232Z,47.48
2023-03-27T18:53:27.846Z,46.36
2023-03-27T18:56:18.883Z,46.39
2023-03-27T18:58:58.142Z,45.88
2023-03-27T19:04:09.844Z,46.42
2023-03-27T19:06:44.047Z,46.87
2023-03-27T19:11:55.520Z,46.88
2023-03-27T19:14:51.128Z,47.19
2023-03-27T19:17:28.151Z,47.01
2023-03-27T19:20:15.432Z,45.99
2023-03-27T19:23:00.809Z,46.54
2023-03-27T19:25:51.606Z,48.04
2023-03-27T19:28:21.712Z,46.42
2023-03-27T19:30:52.911Z,47.21
2023-03-27T19:33:31.830Z,48.13
2023-03-27T19:36:01.537Z,48.39
2023-03-27T19:38:38.883Z,46.97
2023-03-27T19:41:16.825Z,45.92
2023-03-27T19:43:44.975Z,46.59
2023-03-27T19:46:29.935Z,47.99
2023-03-27T19:49:01.829Z,49.36
2023-03-27T19:51:39.901Z,47.38
2023-03-27T19:54:11.420Z,48.85
2023-03-27T19:56:47.707Z,48.18
2023-03-27T19:59:30.726Z,46.96
2023-03-27T20:02:07.935Z,48.56
2023-03-27T20:04:40.803Z,48.39
2023-03-27T20:07:15.612Z,49.08
2023-03-27T20:09:56.843Z,47.77
2023-03-27T20:12:25.489Z,47.98
2023-03-27T20:15:06.949Z,47.58
2023-03-27T20:17:38.985Z,47.19
2023-03-27T20:20:11.903Z,47.85
2023-03-27T20:22:56.368Z,46.49
2023-03-27T20:25:36.789Z,46.97
2023-03-27T20:28:06.325Z,48.36
2023-03-27T20:30:37.359Z,46.71
2023-03-27T20:33:09.244Z,47.23
2023-03-27T20:35:42.263Z,46.15
2023-03-27T20:38:13.442Z,47.49
2023-03-27T20:40:54.001Z,46.87
2023-03-27T20:43:27.377Z,46.76
2023-03-27T20:46:01.644Z,47.70
2023-03-27T20:48:41.568Z,47.39
2023-03-27T20:51:23.830Z,48.79
2023-03-27T20:53:57.929Z,48.42
2023-03-27T20:59:01.130Z,46.84
2023-03-27T21:01:34.410Z,46.60
2023-03-27T21:04:08.944Z,47.12
2023-03-27T21:06:41.748Z,47.25
2023-03-27T21:09:16.057Z,46.58
2023-03-27T21:11:52.060Z,45.97
2023-03-27T21:14:22.626Z,46.77
2023-03-27T21:16:52.984Z,46.38
2023-03-27T21:19:24.748Z,47.11
2023-03-27T21:21:56.858Z,46.56
2023-03-27T21:24:28.004Z,47.02
2023-03-27T21:26:56.282Z,48.48
2023-03-27T21:29:26.327Z,47.73
2023-03-27T21:31:55.054Z,47.88
2023-03-27T21:34:31.086Z,46.73
2023-03-27T21:36:59.139Z,46.75
2023-03-27T21:39:27.933Z,47.53
2023-03-27T21:41:56.934Z,46.98
2023-03-27T21:44:27.714Z,47.61
2023-03-27T21:46:55.858Z,47.16
2023-03-27T21:49:26.795Z,46.75
2023-03-27T21:54:30.569Z,48.09
2023-03-27T21:56:59.795Z,46.82
2023-03-27T21:59:27.398Z,47.08
2023-03-27T22:01:55.701Z,47.72
2023-03-27T22:04:26.294Z,48.26
2023-03-27T22:06:55.362Z,47.56
2023-03-27T22:09:24.786Z,48.10
2023-03-27T22:11:52.814Z,48.61
2023-03-27T22:14:21.194Z,47.09
2023-03-27T22:16:50.079Z,46.77
2023-03-27T22:19:18.808Z,47.49
2023-03-27T22:21:46.645Z,47.77
2023-03-27T22:24:14.988Z,47.11
2023-03-27T22:26:44.097Z,47.80
2023-03-27T22:29:12.191Z,49.99
2023-03-27T22:31:41.615Z,47.94
2023-03-27T22:34:10.752Z,47.07
2023-03-27T22:36:39.674Z,48.45
2023-03-27T22:39:10.895Z,47.22
2023-03-27T22:41:38.554Z,47.50
2023-03-27T22:44:06.463Z,47.63
2023-03-27T22:46:34.580Z,48.02
2023-03-27T22:49:02.170Z,47.93
2023-03-27T22:51:30.952Z,47.38
2023-03-27T22:54:00.753Z,46.90
2023-03-27T22:56:28.504Z,48.09
2023-03-27T22:58:58.156Z,47.72
2023-03-27T23:01:29.058Z,46.96
2023-03-27T23:03:57.047Z,47.25
2023-03-27T23:06:25.078Z,46.84
2023-03-27T23:08:53.887Z,47.21
2023-03-27T23:11:22.429Z,47.52
2023-03-27T23:13:51.424Z,47.31
2023-03-27T23:16:19.594Z,47.13
2023-03-27T23:18:47.505Z,47.56
2023-03-27T23:21:18.255Z,48.34
2023-03-27T23:23:46.920Z,48.63
2023-03-27T23:26:14.748Z,48.98
2023-03-27T23:28:43.404Z,47.35
2023-03-27T23:31:16.384Z,47.99
2023-03-27T23:33:46.128Z,49.24
2023-03-27T23:36:16.833Z,48.09
2023-03-27T23:38:44.845Z,49.79
2023-03-27T23:41:15.397Z,48.09
2023-03-27T23:43:44.004Z,48.05
2023-03-27T23:46:12.636Z,48.32
2023-03-27T23:48:42.045Z,48.47
2023-03-27T23:51:11.277Z,48.07
2023-03-27T23:53:39.378Z,48.20
2023-03-27T23:56:09.840Z,48.88
2023-03-27T23:58:39.464Z,47.27
